Time;durP1;ratioP1;P1;durP2;ratioP2;P2;SDS_P1;SDS_P2;PMS_P1;PMS_P2;Temp;Humidity;BMP_temperature;BMP_pressure;BME280_temperature;BME280_humidity;BME280_pressure;Samples;Min_cycle;Max_cycle;Signal;HPM_P1;HPM_P2
2022/11/04 00:01:43;;;;;;;1.23;0.82;;;10.90;99.90;;;;;;5047949;28;20043;-82
2022/11/04 00:04:11;;;;;;;1.63;0.60;;;10.80;99.90;;;;;;5042871;28;20051;-82
2022/11/04 00:06:37;;;;;;;0.77;0.47;;;10.70;99.90;;;;;;5071425;28;20043;-83
2022/11/04 00:09:05;;;;;;;1.67;0.38;;;10.70;99.90;;;;;;5056292;28;20435;-83
2022/11/04 00:14:15;;;;;;;0.73;0.30;;;10.70;99.90;;;;;;5071874;28;20041;-83
2022/11/04 00:19:26;;;;;;;0.52;0.45;;;10.60;99.90;;;;;;5071340;28;20040;-83
2022/11/04 00:29:59;;;;;;;0.52;0.40;;;10.60;99.90;;;;;;5072387;28;20056;-82
2022/11/04 00:35:11;;;;;;;0.77;0.35;;;10.50;99.90;;;;;;5071637;28;20040;-82
2022/11/04 00:37:42;;;;;;;0.52;0.38;;;10.60;99.90;;;;;;5054441;28;20052;-82
2022/11/04 00:40:10;;;;;;;1.30;0.40;;;10.50;99.90;;;;;;5073399;28;20037;-81
2022/11/04 00:42:36;;;;;;;1.33;0.50;;;10.50;99.90;;;;;;5074552;28;20045;-82
2022/11/04 00:45:02;;;;;;;2.65;0.70;;;10.50;99.90;;;;;;5058128;28;20603;-82
2022/11/04 00:47:28;;;;;;;1.25;0.38;;;10.50;99.90;;;;;;5075236;28;20714;-82
2022/11/04 00:49:54;;;;;;;1.10;0.40;;;10.50;99.90;;;;;;5055022;28;20047;-82
2022/11/04 00:52:20;;;;;;;0.20;0.20;;;10.50;99.90;;;;;;5074918;28;20040;-82
2022/11/04 00:54:46;;;;;;;0.20;0.17;;;10.50;99.90;;;;;;5040972;28;20058;-82
2022/11/04 00:57:13;;;;;;;0.95;0.20;;;10.40;99.90;;;;;;5059632;28;20052;-81
2022/11/04 00:59:39;;;;;;;3.53;0.60;;;10.40;99.90;;;;;;5072530;28;20040;-82
2022/11/04 01:02:09;;;;;;;1.08;0.35;;;10.40;99.90;;;;;;5026555;28;20385;-82
2022/11/04 01:04:35;;;;;;;0.50;0.30;;;10.40;99.90;;;;;;5075595;28;20067;-82
2022/11/04 01:07:01;;;;;;;0.10;0.10;;;10.40;99.90;;;;;;5058212;28;20063;-82
2022/11/04 01:09:27;;;;;;;2.35;1.63;;;10.40;99.90;;;;;;5075005;28;20048;-82
2022/11/04 01:11:53;;;;;;;0.40;0.25;;;10.40;99.90;;;;;;5051565;28;20548;-82
2022/11/04 01:14:19;;;;;;;1.65;0.20;;;10.40;99.90;;;;;;5073826;28;20040;-83
2022/11/04 01:16:47;;;;;;;3.35;0.40;;;10.40;99.90;;;;;;5064820;28;20562;-83
2022/11/04 01:19:13;;;;;;;0.20;0.13;;;10.40;99.90;;;;;;5058384;28;20405;-83
2022/11/04 01:21:38;;;;;;;0.73;0.20;;;10.40;99.90;;;;;;5057708;28;20048;-83
2022/11/04 01:24:05;;;;;;;3.40;0.45;;;10.50;99.90;;;;;;5075572;28;20119;-83
2022/11/04 01:26:31;;;;;;;2.55;0.63;;;10.40;99.90;;;;;;5058386;28;20402;-83
2022/11/04 01:28:58;;;;;;;0.57;0.10;;;10.30;99.90;;;;;;5074874;28;20044;-83
2022/11/04 01:31:27;;;;;;;2.80;0.38;;;10.40;99.90;;;;;;5075925;28;20036;-83
2022/11/04 01:33:53;;;;;;;1.77;0.30;;;10.30;99.90;;;;;;5092786;28;20043;-83
2022/11/04 01:36:20;;;;;;;1.77;0.40;;;10.30;99.90;;;;;;5058327;28;20080;-83
2022/11/04 01:38:47;;;;;;;0.63;0.20;;;10.30;99.90;;;;;;5057957;28;20047;-83
2022/11/04 01:41:28;;;;;;;1.92;0.30;;;10.40;99.90;;;;;;5057838;28;20432;-83
2022/11/04 01:43:59;;;;;;;0.65;0.22;;;10.40;99.90;;;;;;5071374;28;20443;-83
2022/11/04 01:46:47;;;;;;;2.83;0.60;;;10.40;99.90;;;;;;5071686;28;20053;-83
2022/11/04 01:49:36;;;;;;;1.02;0.35;;;10.30;99.90;;;;;;5072861;28;20055;-82
2022/11/04 01:52:07;;;;;;;1.13;0.80;;;10.30;99.90;;;;;;5073385;28;20044;-82
2022/11/04 01:54:34;;;;;;;2.30;0.32;;;10.30;99.90;;;;;;5073721;28;20482;-82
2022/11/04 01:57:02;;;;;;;0.38;0.25;;;10.40;99.90;;;;;;5057968;28;20048;-82
2022/11/04 01:59:33;;;;;;;2.35;0.60;;;10.30;99.90;;;;;;5074702;28;20076;-82
2022/11/04 02:01:59;;;;;;;0.70;0.25;;;10.30;99.90;;;;;;5071253;28;20405;-82
2022/11/04 02:04:26;;;;;;;0.55;0.45;;;10.30;99.90;;;;;;5058087;28;20106;-83
2022/11/04 02:06:58;;;;;;;3.63;0.38;;;10.30;99.90;;;;;;5074895;28;20052;-83
2022/11/04 02:09:27;;;;;;;1.60;0.50;;;10.30;99.90;;;;;;5074218;28;20036;-83
2022/11/04 02:14:39;;;;;;;3.72;0.30;;;10.40;99.90;;;;;;5068833;28;20419;-83
2022/11/04 02:17:51;;;;;;;5.00;0.38;;;10.30;99.90;;;;;;5050006;28;20076;-83
2022/11/04 02:20:59;;;;;;;1.25;0.30;;;10.30;99.90;;;;;;5056118;28;20040;-82
2022/11/04 02:24:00;;;;;;;0.13;0.13;;;10.40;99.90;;;;;;5060467;28;20486;-82
2022/11/04 02:26:40;;;;;;;0.28;0.20;;;10.30;99.90;;;;;;5075387;28;20499;-82
2022/11/04 02:29:21;;;;;;;0.55;0.30;;;10.40;99.90;;;;;;5067471;28;20048;-82
2022/11/04 02:31:59;;;;;;;2.60;0.50;;;10.40;99.90;;;;;;5056335;28;20040;-82
2022/11/04 02:35:00;;;;;;;0.47;0.13;;;10.40;99.90;;;;;;5073430;28;20505;-82
2022/11/04 02:37:52;;;;;;;0.63;0.22;;;10.30;99.90;;;;;;4977006;28;20074;-84
2022/11/04 02:41:03;;;;;;;0.80;0.40;;;10.40;99.90;;;;;;5071605;28;20220;-84
2022/11/04 02:44:06;;;;;;;2.05;0.22;;;10.40;99.90;;;;;;5036208;28;20052;-84
2022/11/04 02:46:45;;;;;;;0.45;0.30;;;10.30;99.90;;;;;;5037474;28;20067;-84
2022/11/04 02:49:25;;;;;;;2.22;0.30;;;10.30;99.90;;;;;;5054273;28;20483;-84
2022/11/04 02:52:11;;;;;;;3.25;0.43;;;10.30;99.90;;;;;;5067922;28;20032;-84
2022/11/04 02:55:20;;;;;;;2.58;0.73;;;10.30;99.90;;;;;;5073427;28;20060;-84
2022/11/04 02:57:48;;;;;;;5.70;0.63;;;10.30;99.90;;;;;;5022594;28;20044;-84
2022/11/04 03:00:14;;;;;;;2.42;0.60;;;10.30;99.90;;;;;;5073175;28;20044;-85
2022/11/04 03:03:02;;;;;;;4.50;0.63;;;10.30;99.90;;;;;;5056478;28;20037;-84
2022/11/04 03:05:33;;;;;;;0.20;0.20;;;10.30;99.90;;;;;;5072920;28;20071;-84
2022/11/04 03:08:05;;;;;;;1.55;0.38;;;10.50;99.90;;;;;;5073372;28;20051;-84
2022/11/04 03:10:34;;;;;;;0.30;0.15;;;10.30;99.90;;;;;;5073497;28;20505;-84
2022/11/04 03:13:10;;;;;;;1.25;0.38;;;10.30;99.90;;;;;;5072560;28;20037;-83
2022/11/04 03:15:39;;;;;;;5.88;1.48;;;10.30;99.90;;;;;;5056598;28;20117;-83
2022/11/04 03:18:31;;;;;;;2.08;0.32;;;10.30;99.90;;;;;;5073151;28;20036;-83
2022/11/04 03:21:00;;;;;;;0.25;0.10;;;10.20;99.90;;;;;;5059575;28;20040;-83
2022/11/04 03:23:26;;;;;;;1.30;0.30;;;10.30;99.90;;;;;;5049102;28;20044;-83
2022/11/04 03:25:56;;;;;;;1.85;0.47;;;10.20;99.90;;;;;;5071723;28;20101;-83
2022/11/04 03:28:22;;;;;;;0.20;0.20;;;10.30;99.90;;;;;;5056558;28;20041;-84
2022/11/04 03:30:52;;;;;;;5.47;1.15;;;10.30;99.90;;;;;;5073702;28;20051;-85
2022/11/04 03:33:27;;;;;;;1.02;0.38;;;10.30;99.90;;;;;;5055861;28;20033;-84
2022/11/04 03:35:53;;;;;;;1.08;0.25;;;10.30;99.90;;;;;;5072725;28;20052;-84
2022/11/04 03:38:20;;;;;;;2.85;0.70;;;10.30;99.90;;;;;;5072844;28;20363;-85
2022/11/04 03:40:46;;;;;;;0.57;0.32;;;10.30;99.90;;;;;;5054727;28;20451;-85
2022/11/04 03:43:26;;;;;;;0.25;0.25;;;10.30;99.90;;;;;;5039539;28;20084;-85
2022/11/04 03:45:53;;;;;;;1.63;0.52;;;10.20;99.90;;;;;;5073588;28;20041;-85
2022/11/04 03:48:20;;;;;;;3.20;0.73;;;10.20;99.90;;;;;;5056615;28;20040;-85
2022/11/04 03:50:47;;;;;;;2.72;1.05;;;10.20;99.90;;;;;;5056515;28;20040;-85
2022/11/04 03:53:18;;;;;;;2.38;0.60;;;10.10;99.90;;;;;;5055978;28;20036;-85
2022/11/04 03:55:53;;;;;;;0.52;0.22;;;10.10;99.90;;;;;;5056369;28;20044;-84
2022/11/04 03:59:09;;;;;;;2.08;0.20;;;10.10;99.90;;;;;;5072054;28;20051;-85
2022/11/04 04:01:54;;;;;;;0.75;0.25;;;10.10;99.90;;;;;;5038336;28;20105;-82
2022/11/04 04:04:22;;;;;;;5.03;0.40;;;10.10;99.90;;;;;;5055998;28;20052;-82
2022/11/04 04:06:52;;;;;;;4.63;0.65;;;10.00;99.90;;;;;;5071858;28;20113;-82
2022/11/04 04:09:25;;;;;;;2.05;0.40;;;10.00;99.90;;;;;;5073789;28;20478;-82
2022/11/04 04:11:57;;;;;;;1.17;0.40;;;10.30;99.90;;;;;;5054700;28;20059;-82
2022/11/04 04:14:40;;;;;;;3.35;0.70;;;10.00;99.90;;;;;;5072578;28;20033;-82
2022/11/04 04:17:19;;;;;;;2.30;0.40;;;10.00;99.90;;;;;;5055893;28;20375;-82
2022/11/04 04:20:00;;;;;;;2.67;0.63;;;9.90;99.90;;;;;;5072159;28;20083;-82
2022/11/04 04:22:46;;;;;;;0.13;0.13;;;9.90;99.90;;;;;;5073492;28;20029;-82
2022/11/04 04:28:00;;;;;;;0.35;0.20;;;9.80;99.90;;;;;;5072075;28;20394;-82
2022/11/04 04:30:26;;;;;;;1.65;0.52;;;9.80;99.90;;;;;;5072538;28;20043;-82
2022/11/04 04:32:57;;;;;;;2.80;0.55;;;9.80;99.90;;;;;;5071951;28;20490;-81
2022/11/04 04:35:40;;;;;;;0.13;0.13;;;9.80;99.90;;;;;;5072495;28;20604;-81
2022/11/04 04:46:36;;;;;;;0.30;0.20;;;9.70;99.90;;;;;;5072516;28;20044;-82
2022/11/04 04:49:08;;;;;;;0.93;0.38;;;9.70;99.90;;;;;;5073355;28;20036;-82
2022/11/04 04:51:42;;;;;;;1.17;0.30;;;9.70;99.90;;;;;;5072003;28;20045;-82
2022/11/04 04:54:09;;;;;;;2.17;0.32;;;9.70;99.90;;;;;;5071496;28;20474;-82
2022/11/04 04:56:34;;;;;;;0.22;0.22;;;9.70;99.90;;;;;;5055309;28;20049;-82
2022/11/04 04:59:00;;;;;;;1.38;0.43;;;9.80;99.90;;;;;;5055323;28;20060;-82
2022/11/04 05:01:26;;;;;;;0.43;0.10;;;9.60;99.90;;;;;;5071430;28;20123;-82
2022/11/04 05:03:52;;;;;;;0.35;0.20;;;9.60;99.90;;;;;;5071727;28;20055;-82
2022/11/04 05:06:18;;;;;;;0.25;0.20;;;9.60;99.90;;;;;;5038179;28;20045;-82
2022/11/04 05:08:43;;;;;;;0.63;0.35;;;9.60;99.90;;;;;;5073539;28;20028;-84
2022/11/04 05:11:09;;;;;;;1.80;0.45;;;9.50;99.90;;;;;;5071638;28;20045;-84
2022/11/04 05:13:35;;;;;;;0.17;0.17;;;9.50;99.90;;;;;;5055347;28;20128;-84
2022/11/04 05:16:06;;;;;;;1.05;0.30;;;9.50;99.90;;;;;;5072204;28;20122;-84
2022/11/04 05:18:31;;;;;;;0.25;0.25;;;9.50;99.90;;;;;;5072181;28;20460;-84
2022/11/04 05:20:57;;;;;;;0.95;0.32;;;9.50;99.90;;;;;;5036761;28;20071;-84
2022/11/04 05:23:23;;;;;;;1.00;0.38;;;9.50;99.90;;;;;;5057471;28;20119;-83
2022/11/04 05:25:48;;;;;;;2.35;0.82;;;9.50;99.90;;;;;;5042765;28;20055;-83
2022/11/04 05:28:14;;;;;;;1.92;0.22;;;9.50;99.90;;;;;;5077150;28;20047;-83
2022/11/04 05:30:40;;;;;;;1.17;0.50;;;9.50;99.90;;;;;;5058890;28;20044;-83
2022/11/04 05:33:06;;;;;;;0.55;0.32;;;9.80;99.90;;;;;;5058545;28;20040;-83
2022/11/04 05:35:33;;;;;;;2.33;0.60;;;10.10;99.90;;;;;;5075164;28;20494;-83
2022/11/04 05:37:58;;;;;;;1.60;0.50;;;9.40;99.90;;;;;;5075417;28;20498;-83
2022/11/04 05:40:24;;;;;;;1.30;0.60;;;10.20;99.90;;;;;;5076192;28;20055;-82
2022/11/04 05:42:50;;;;;;;1.85;0.32;;;9.80;99.90;;;;;;5074606;28;20055;-82
2022/11/04 05:45:16;;;;;;;0.20;0.20;;;9.30;99.90;;;;;;5074943;28;20110;-82
2022/11/04 05:47:42;;;;;;;1.33;0.55;;;9.30;99.90;;;;;;5075251;28;20036;-82
2022/11/04 05:50:08;;;;;;;2.40;0.52;;;9.20;99.90;;;;;;5075032;28;20044;-82
2022/11/04 05:52:33;;;;;;;0.98;0.40;;;9.20;99.90;;;;;;5074590;28;20076;-82
2022/11/04 05:54:59;;;;;;;1.42;0.30;;;9.10;99.90;;;;;;5058748;28;20048;-82
2022/11/04 05:57:25;;;;;;;0.70;0.50;;;9.00;99.90;;;;;;5037936;28;20045;-83
2022/11/04 05:59:50;;;;;;;0.80;0.63;;;9.20;99.90;;;;;;5022152;28;20033;-83
2022/11/04 06:02:16;;;;;;;1.75;0.40;;;8.90;99.90;;;;;;5067313;28;20115;-83
2022/11/04 06:04:42;;;;;;;0.57;0.43;;;8.90;99.90;;;;;;5075031;28;20127;-83
2022/11/04 06:07:08;;;;;;;0.88;0.20;;;8.90;99.90;;;;;;5057693;28;20059;-83
2022/11/04 06:09:40;;;;;;;0.40;0.25;;;;;;;;;;5053706;28;20444;-83
2022/11/04 06:12:11;;;;;;;2.38;0.43;;;8.90;99.90;;;;;;5074304;28;20118;-83
2022/11/04 06:14:37;;;;;;;0.20;0.20;;;8.80;99.90;;;;;;5057983;28;20036;-82
2022/11/04 06:17:03;;;;;;;3.17;0.47;;;8.80;99.90;;;;;;5057629;28;20086;-82
2022/11/04 06:19:28;;;;;;;0.20;0.20;;;8.80;99.90;;;;;;5068958;28;20116;-82
2022/11/04 06:21:54;;;;;;;2.05;0.68;;;8.70;99.90;;;;;;5038943;28;20083;-82
2022/11/04 06:24:20;;;;;;;1.00;0.40;;;8.70;99.90;;;;;;5065981;28;20505;-82
2022/11/04 06:26:46;;;;;;;0.60;0.43;;;9.10;99.90;;;;;;5075807;28;20055;-82
2022/11/04 06:29:11;;;;;;;1.10;0.55;;;8.70;99.90;;;;;;5077681;28;20067;-82
2022/11/04 06:31:37;;;;;;;9.65;1.00;;;8.70;99.90;;;;;;5059343;28;20553;-83
2022/11/04 06:34:03;;;;;;;13.18;1.10;;;8.60;99.90;;;;;;5075187;28;20063;-83
2022/11/04 06:36:29;;;;;;;1.00;0.63;;;8.60;99.90;;;;;;5059256;28;20114;-83
2022/11/04 06:38:54;;;;;;;3.35;0.82;;;8.60;99.90;;;;;;5074619;28;20036;-83
2022/11/04 06:41:20;;;;;;;2.00;0.47;;;8.50;99.90;;;;;;5043512;28;20041;-83
2022/11/04 06:43:46;;;;;;;0.40;0.35;;;8.40;99.90;;;;;;5033494;28;20071;-83
2022/11/04 06:46:27;;;;;;;2.30;0.52;;;8.40;99.90;;;;;;5057187;28;20084;-83
2022/11/04 06:48:55;;;;;;;2.08;0.52;;;8.60;99.90;;;;;;5049626;28;20044;-84
2022/11/04 06:51:20;;;;;;;1.55;0.60;;;8.40;99.90;;;;;;5073690;28;20063;-84
2022/11/04 06:53:46;;;;;;;0.70;0.38;;;8.30;99.90;;;;;;5033795;28;20475;-84
2022/11/04 06:56:12;;;;;;;0.68;0.50;;;8.30;99.90;;;;;;5054823;28;20044;-84
2022/11/04 06:58:37;;;;;;;2.42;0.57;;;8.30;99.90;;;;;;5074060;28;20050;-84
2022/11/04 07:01:03;;;;;;;1.85;0.80;;;8.30;99.90;;;;;;5036876;28;20036;-84
2022/11/04 07:03:29;;;;;;;0.85;0.50;;;8.30;99.90;;;;;;5053856;28;20048;-82
2022/11/04 07:05:54;;;;;;;0.95;0.63;;;8.20;99.90;;;;;;5056635;28;20371;-82
2022/11/04 07:08:20;;;;;;;3.30;0.85;;;8.20;99.90;;;;;;5040212;28;20094;-82
2022/11/04 07:10:46;;;;;;;3.03;0.57;;;8.20;99.90;;;;;;5048644;28;20051;-82
2022/11/04 07:13:12;;;;;;;0.52;0.52;;;8.30;99.90;;;;;;5036662;28;20483;-82
2022/11/04 07:15:39;;;;;;;1.70;0.88;;;8.30;99.90;;;;;;5047226;28;20045;-82
2022/11/04 07:18:05;;;;;;;2.97;1.05;;;8.40;99.90;;;;;;5055946;28;20094;-82
2022/11/04 07:20:33;;;;;;;1.70;0.93;;;8.40;99.90;;;;;;5081889;28;20085;-82
2022/11/04 07:22:58;;;;;;;0.57;0.50;;;8.60;99.90;;;;;;5093336;28;20046;-82
2022/11/04 07:25:24;;;;;;;1.55;0.85;;;8.40;99.90;;;;;;5077676;28;20048;-82
2022/11/04 07:27:50;;;;;;;0.98;0.70;;;8.50;99.90;;;;;;5056468;28;20041;-82
2022/11/04 07:30:17;;;;;;;2.05;0.60;;;8.90;99.90;;;;;;5056067;28;20043;-82
2022/11/04 07:32:43;;;;;;;5.18;1.10;;;8.90;99.90;;;;;;5072789;28;20075;-82
2022/11/04 07:35:09;;;;;;;1.40;0.60;;;9.20;99.90;;;;;;5066809;28;20036;-82
2022/11/04 07:37:34;;;;;;;1.38;0.70;;;9.50;99.90;;;;;;5050727;28;20417;-82
2022/11/04 07:40:00;;;;;;;2.05;0.63;;;11.50;99.90;;;;;;5024621;28;20052;-82
2022/11/04 07:42:26;;;;;;;2.05;0.70;;;12.20;99.90;;;;;;5069084;28;20041;-82
2022/11/04 07:44:52;;;;;;;2.65;0.95;;;;;;;;;;5059517;28;20052;-82
2022/11/04 07:47:17;;;;;;;1.25;0.57;;;13.50;99.90;;;;;;5059333;28;20097;-82
2022/11/04 07:49:43;;;;;;;3.35;0.68;;;13.70;99.90;;;;;;5076054;28;20032;-82
2022/11/04 07:52:09;;;;;;;2.47;0.90;;;14.10;99.90;;;;;;5076110;28;20039;-82
2022/11/04 07:54:35;;;;;;;1.13;0.65;;;14.60;99.90;;;;;;5059126;28;20118;-83
2022/11/04 07:57:00;;;;;;;2.03;0.77;;;14.90;99.90;;;;;;5072031;28;20043;-83
2022/11/04 07:59:27;;;;;;;1.20;0.55;;;15.40;99.90;;;;;;5075656;28;20065;-83
2022/11/04 08:01:52;;;;;;;1.67;0.63;;;15.30;99.90;;;;;;5060766;28;20047;-83
2022/11/04 08:04:18;;;;;;;1.08;0.50;;;15.50;99.90;;;;;;5071863;28;20390;-83
2022/11/04 08:06:44;;;;;;;0.63;0.50;;;15.60;99.90;;;;;;5059110;28;20050;-84
2022/11/04 08:09:10;;;;;;;6.78;1.42;;;15.50;99.90;;;;;;5059497;28;20027;-83
2022/11/04 08:11:35;;;;;;;1.40;0.85;;;15.50;99.90;;;;;;5071599;28;20039;-84
2022/11/04 08:14:04;;;;;;;2.60;0.63;;;15.60;99.90;;;;;;5079888;28;20031;-85
2022/11/04 08:16:31;;;;;;;3.00;0.63;;;16.10;99.90;;;;;;5081053;28;20044;-85
2022/11/04 08:19:00;;;;;;;1.25;0.43;;;16.70;99.90;;;;;;5078615;28;20031;-85
2022/11/04 08:21:28;;;;;;;1.35;0.57;;;16.80;99.90;;;;;;5087386;28;20075;-85
2022/11/04 08:23:53;;;;;;;1.45;0.45;;;17.70;99.90;;;;;;5078893;28;20051;-85
2022/11/04 08:26:20;;;;;;;3.75;0.60;;;18.00;99.90;;;;;;5075388;28;20043;-85
2022/11/04 08:28:46;;;;;;;2.10;0.80;;;18.80;99.90;;;;;;5072262;28;20058;-84
2022/11/04 08:31:17;;;;;;;2.10;0.50;;;19.10;99.90;;;;;;5037018;28;20041;-84
2022/11/04 08:33:43;;;;;;;1.15;0.35;;;19.40;99.90;;;;;;5075605;28;20043;-84
2022/11/04 08:36:21;;;;;;;0.63;0.45;;;19.70;99.90;;;;;;5075632;28;20474;-84
2022/11/04 08:38:47;;;;;;;0.20;0.20;;;20.10;99.90;;;;;;5075009;28;20036;-84
2022/11/04 08:41:15;;;;;;;0.52;0.43;;;20.30;99.90;;;;;;5039733;28;20505;-84
2022/11/04 08:43:41;;;;;;;1.65;0.30;;;20.80;99.90;;;;;;5058573;28;20051;-82
2022/11/04 08:46:09;;;;;;;0.55;0.52;;;21.00;99.90;;;;;;5058638;28;20040;-84
2022/11/04 08:48:35;;;;;;;1.50;0.25;;;21.20;99.90;;;;;;5042218;28;20040;-82
2022/11/04 08:51:03;;;;;;;1.02;0.77;;;21.00;99.90;;;;;;5074860;28;20043;-82
2022/11/04 08:53:28;;;;;;;0.82;0.60;;;21.20;99.20;;;;;;5063005;28;20048;-82
2022/11/04 08:55:55;;;;;;;0.20;0.20;;;21.30;99.90;;;;;;5055411;28;20390;-83
2022/11/04 08:58:22;;;;;;;1.23;0.60;;;21.40;98.80;;;;;;5074027;28;20043;-82
2022/11/04 09:00:48;;;;;;;2.10;0.60;;;;;;;;;;5078541;28;20036;-83
2022/11/04 09:03:15;;;;;;;1.17;0.50;;;21.30;96.80;;;;;;5077167;28;20040;-83
2022/11/04 09:05:46;;;;;;;3.28;0.50;;;21.30;97.50;;;;;;5079170;28;20040;-82
2022/11/04 09:08:13;;;;;;;1.25;0.30;;;21.50;98.50;;;;;;5076994;28;20115;-82
2022/11/04 09:10:46;;;;;;;0.98;0.50;;;21.90;98.00;;;;;;5079299;28;20098;-83
2022/11/04 09:13:14;;;;;;;0.20;0.20;;;21.80;96.70;;;;;;5060294;28;20101;-83
2022/11/04 09:15:41;;;;;;;0.68;0.35;;;21.00;95.90;;;;;;5078964;28;20482;-83
2022/11/04 09:18:06;;;;;;;0.93;0.50;;;20.10;98.10;;;;;;5078087;28;20036;-84
2022/11/04 09:20:33;;;;;;;0.20;0.10;;;19.10;99.90;;;;;;5077674;28;20032;-84
2022/11/04 09:22:59;;;;;;;1.30;0.52;;;18.10;99.90;;;;;;5039050;28;20094;-84
2022/11/04 09:25:25;;;;;;;0.20;0.20;;;17.40;99.90;;;;;;5059088;28;20040;-84
2022/11/04 09:27:51;;;;;;;4.30;0.70;;;16.80;99.90;;;;;;5058329;28;20233;-84
2022/11/04 09:30:16;;;;;;;2.38;0.55;;;16.20;99.90;;;;;;5077956;28;20553;-84
2022/11/04 09:32:42;;;;;;;1.80;0.40;;;16.00;99.90;;;;;;5058980;28;20048;-85
2022/11/04 09:35:08;;;;;;;2.70;0.50;;;16.10;99.90;;;;;;5060951;28;20036;-82
2022/11/04 09:37:34;;;;;;;0.30;0.30;;;16.10;99.90;;;;;;5078176;28;20040;-82
2022/11/04 09:39:59;;;;;;;1.70;0.43;;;16.10;99.90;;;;;;5061290;28;20432;-83
2022/11/04 09:42:48;;;;;;;2.70;0.82;;;16.60;99.90;;;;;;5048393;28;20542;-83
2022/11/04 09:45:17;;;;;;;2.03;0.40;;;17.60;99.90;;;;;;5060762;28;20048;-83
2022/11/04 09:47:46;;;;;;;0.60;0.40;;;18.20;99.90;;;;;;5075481;28;20498;-83
2022/11/04 09:50:24;;;;;;;3.10;0.38;;;18.40;99.90;;;;;;5076977;28;20130;-84
2022/11/04 09:52:58;;;;;;;2.05;0.50;;;18.60;99.90;;;;;;5057485;28;20118;-85
2022/11/04 09:55:39;;;;;;;1.27;0.60;;;18.70;99.90;;;;;;5075573;28;20055;-84
2022/11/04 09:58:05;;;;;;;1.55;0.55;;;;;;;;;;5075156;28;20036;-84
2022/11/04 10:00:35;;;;;;;1.35;0.30;;;20.30;99.90;;;;;;5059045;28;20490;-84
2022/11/04 10:03:13;;;;;;;2.65;1.02;;;20.70;99.90;;;;;;5075577;28;20494;-85
2022/11/04 10:05:48;;;;;;;0.73;0.43;;;20.70;99.90;;;;;;5076168;28;20050;-85
2022/11/04 10:08:45;;;;;;;1.60;0.50;;;20.90;99.90;;;;;;5078119;28;20036;-83
2022/11/04 10:11:42;;;;;;;2.03;0.55;;;20.40;99.90;;;;;;5072033;28;20072;-83
2022/11/04 10:14:14;;;;;;;1.88;0.70;;;19.60;99.90;;;;;;5061834;28;20044;-83
2022/11/04 10:16:45;;;;;;;3.90;0.85;;;18.90;99.90;;;;;;5056931;28;20129;-83
2022/11/04 10:19:50;;;;;;;1.25;0.43;;;18.50;99.90;;;;;;5060187;28;20071;-83
2022/11/04 10:22:33;;;;;;;1.75;0.30;;;18.00;99.90;;;;;;5077019;28;20070;-83
2022/11/04 10:25:27;;;;;;;0.82;0.60;;;17.20;99.90;;;;;;5075396;28;20048;-83
2022/11/04 10:27:53;;;;;;;1.25;0.93;;;17.10;99.90;;;;;;5071503;28;20048;-84
2022/11/04 10:30:24;;;;;;;0.88;0.52;;;17.10;99.90;;;;;;5060512;28;20097;-83
2022/11/04 10:32:52;;;;;;;3.13;0.52;;;16.80;99.90;;;;;;5076538;28;20040;-83
2022/11/04 10:35:27;;;;;;;3.80;0.75;;;17.10;99.90;;;;;;5065377;28;20051;-83
2022/11/04 10:37:54;;;;;;;1.75;0.75;;;17.10;99.90;;;;;;5057876;28;20078;-83
2022/11/04 10:40:28;;;;;;;1.73;0.75;;;16.50;99.90;;;;;;5064111;28;20032;-83
2022/11/04 10:42:57;;;;;;;0.95;0.50;;;15.80;99.90;;;;;;5064031;28;20425;-83
2022/11/04 10:45:43;;;;;;;2.00;0.47;;;15.20;99.90;;;;;;5049532;28;20055;-83
2022/11/04 10:48:34;;;;;;;2.72;0.55;;;15.10;99.90;;;;;;5066876;28;20051;-83
2022/11/04 10:51:00;;;;;;;1.15;0.50;;;14.50;99.90;;;;;;5055213;28;20078;-83
2022/11/04 10:53:30;;;;;;;0.60;0.30;;;14.20;99.90;;;;;;5052658;28;20101;-82
2022/11/04 10:56:15;;;;;;;1.00;0.30;;;13.90;99.90;;;;;;5074685;28;20105;-82
2022/11/04 10:58:46;;;;;;;1.92;0.75;;;13.70;99.90;;;;;;5077434;22;20079;-84
2022/11/04 11:01:30;;;;;;;0.70;0.40;;;13.40;99.90;;;;;;5072742;28;20402;-84
2022/11/04 11:03:56;;;;;;;2.22;0.52;;;12.90;99.90;;;;;;5055553;28;20508;-84
2022/11/04 11:06:28;;;;;;;1.20;0.40;;;13.30;99.90;;;;;;5073764;28;20071;-85
2022/11/04 11:09:20;;;;;;;1.75;0.50;;;13.20;99.90;;;;;;5070412;28;20037;-84
2022/11/04 11:11:50;;;;;;;3.47;0.40;;;13.40;99.90;;;;;;5073325;28;20036;-84
2022/11/04 11:14:27;;;;;;;1.20;0.30;;;13.50;99.90;;;;;;5072012;28;20478;-84
2022/11/04 11:16:54;;;;;;;2.95;0.60;;;13.50;99.90;;;;;;5055889;28;20046;-84
2022/11/04 11:19:23;;;;;;;0.80;0.50;;;13.40;99.90;;;;;;5072161;28;20489;-84
2022/11/04 11:21:54;;;;;;;2.55;0.80;;;13.50;99.90;;;;;;5055289;28;20037;-84
2022/11/04 11:24:26;;;;;;;0.30;0.30;;;13.80;99.90;;;;;;5047537;28;20045;-84
2022/11/04 11:26:58;;;;;;;0.75;0.43;;;14.10;99.90;;;;;;5066586;28;20123;-85
2022/11/04 11:29:30;;;;;;;1.17;0.60;;;14.10;99.90;;;;;;5072155;28;20437;-85
2022/11/04 11:31:57;;;;;;;1.00;0.45;;;13.80;99.90;;;;;;5072886;28;20440;-83
2022/11/04 11:34:37;;;;;;;3.13;0.85;;;13.60;99.90;;;;;;5071599;28;20040;-82
2022/11/04 11:37:04;;;;;;;2.20;0.57;;;13.70;99.90;;;;;;5072864;28;20509;-82
2022/11/04 11:39:32;;;;;;;2.70;0.65;;;13.80;99.90;;;;;;5071730;28;20052;-82
2022/11/04 11:42:03;;;;;;;0.63;0.32;;;14.00;99.90;;;;;;5072002;28;20032;-82
2022/11/04 11:44:46;;;;;;;0.55;0.30;;;14.30;99.90;;;;;;5070721;28;20041;-82
2022/11/04 11:47:24;;;;;;;0.43;0.20;;;14.40;99.90;;;;;;5035777;28;20131;-85
2022/11/04 11:50:14;;;;;;;1.67;0.35;;;14.50;99.90;;;;;;5072336;28;20040;-84
2022/11/04 11:52:51;;;;;;;0.43;0.40;;;14.60;99.90;;;;;;5072023;28;20379;-84
2022/11/04 11:55:27;;;;;;;2.78;0.60;;;14.70;99.90;;;;;;5070112;28;20407;-84
2022/11/04 11:58:08;;;;;;;0.90;0.47;;;14.80;99.90;;;;;;5040666;28;20449;-84
2022/11/04 12:00:41;;;;;;;0.63;0.40;;;14.90;99.90;;;;;;5071429;28;20049;-82
2022/11/04 12:03:16;;;;;;;1.98;0.47;;;15.00;99.90;;;;;;5055655;28;20044;-82
2022/11/04 12:06:13;;;;;;;4.28;0.47;;;15.10;99.90;;;;;;5069527;28;20037;-80
2022/11/04 12:08:57;;;;;;;0.57;0.55;;;15.10;99.90;;;;;;5043646;28;20041;-80
2022/11/04 12:11:41;;;;;;;0.88;0.52;;;15.00;99.90;;;;;;5044082;28;20123;-80
2022/11/04 12:14:29;;;;;;;1.08;0.60;;;14.80;99.90;;;;;;5072379;28;20475;-80
2022/11/04 12:17:04;;;;;;;0.90;0.70;;;14.70;99.90;;;;;;5052948;28;20059;-80
2022/11/04 12:20:02;;;;;;;1.75;0.60;;;14.50;99.90;;;;;;5060750;28;20562;-80
2022/11/04 12:23:04;;;;;;;2.88;0.60;;;14.30;99.90;;;;;;5071386;28;20036;-80
2022/11/04 12:25:50;;;;;;;1.35;0.85;;;14.20;99.90;;;;;;5072138;28;20394;-80
2022/11/04 12:28:21;;;;;;;;;;;14.20;99.90;;;;;;5068519;28;20512;-80
2022/11/04 12:31:17;;;;;;;0.82;0.50;;;14.20;99.90;;;;;;5055029;28;20382;-80
2022/11/04 12:34:18;;;;;;;1.08;0.50;;;14.10;99.90;;;;;;5051195;28;20045;-80
2022/11/04 12:36:44;;;;;;;0.70;0.63;;;14.10;99.90;;;;;;5054390;28;20037;-82
2022/11/04 12:39:22;;;;;;;2.40;0.50;;;14.10;99.90;;;;;;5055215;28;20051;-82
2022/11/04 12:42:03;;;;;;;0.35;0.25;;;14.00;99.90;;;;;;5068007;28;20106;-82
2022/11/04 12:44:35;;;;;;;0.88;0.47;;;14.00;99.90;;;;;;5036508;28;20037;-82
2022/11/04 12:47:28;;;;;;;2.28;0.70;;;14.00;99.90;;;;;;5053620;28;20543;-82
2022/11/04 12:50:12;;;;;;;1.40;0.55;;;13.90;99.90;;;;;;5050233;28;20066;-82
2022/11/04 12:53:04;;;;;;;1.52;1.23;;;13.80;99.90;;;;;;5056389;28;20041;-82
2022/11/04 12:55:52;;;;;;;2.13;0.88;;;13.80;99.90;;;;;;5046054;28;20419;-80
2022/11/04 12:58:30;;;;;;;3.15;0.32;;;13.90;99.90;;;;;;5058087;28;20475;-80
2022/11/04 13:01:11;;;;;;;2.65;0.70;;;14.00;99.90;;;;;;5053008;28;20040;-80
2022/11/04 13:03:52;;;;;;;2.30;0.52;;;14.10;99.90;;;;;;5052192;28;20106;-80
2022/11/04 13:06:39;;;;;;;2.92;1.10;;;14.20;99.90;;;;;;5046821;28;20203;-80
2022/11/04 13:09:12;;;;;;;3.72;1.05;;;14.20;99.90;;;;;;5073021;28;20070;-80
2022/11/04 13:11:53;;;;;;;3.50;1.08;;;14.20;99.90;;;;;;5067622;28;20102;-80
2022/11/04 13:15:13;;;;;;;1.73;0.55;;;14.10;99.90;;;;;;5050633;28;20037;-80
2022/11/04 13:17:40;;;;;;;0.70;0.40;;;14.50;99.90;;;;;;5031133;28;20372;-80
2022/11/04 13:20:14;;;;;;;2.03;0.80;;;15.10;99.90;;;;;;5034680;28;20064;-80
2022/11/04 13:22:45;;;;;;;3.40;1.08;;;15.50;99.90;;;;;;5052374;28;20036;-80
2022/11/04 13:25:29;;;;;;;1.98;0.95;;;16.10;99.90;;;;;;5070884;28;20043;-80
2022/11/04 13:27:55;;;;;;;1.45;0.90;;;16.20;99.90;;;;;;5072659;28;20045;-82
2022/11/04 13:30:39;;;;;;;4.28;0.88;;;16.30;99.90;;;;;;5038663;28;20044;-82
2022/11/04 13:33:19;;;;;;;3.10;1.08;;;16.50;99.90;;;;;;5052568;28;20036;-82
2022/11/04 13:36:06;;;;;;;3.42;0.93;;;16.60;99.90;;;;;;5052358;28;20187;-82
2022/11/04 13:38:44;;;;;;;2.22;0.80;;;16.80;99.90;;;;;;5068037;28;20047;-82
2022/11/04 13:41:48;;;;;;;3.72;0.95;;;16.80;99.90;;;;;;5065537;28;20079;-82
2022/11/04 13:44:22;;;;;;;9.05;1.48;;;16.90;99.90;;;;;;5072924;28;20036;-81
2022/11/04 13:46:51;;;;;;;0.93;0.68;;;17.00;99.90;;;;;;5075086;28;20039;-80
2022/11/04 13:49:32;;;;;;;2.70;0.85;;;16.80;99.90;;;;;;5075369;28;20128;-80